createdAt,value
2023-01-21T00:00:44.800Z,24.83
2023-01-21T00:03:13.060Z,27.95
2023-01-21T00:05:40.437Z,27.13
2023-01-21T00:08:07.626Z,29.95
2023-01-21T00:10:34.839Z,29.77
2023-01-21T00:13:02.630Z,33.97
2023-01-21T00:15:29.839Z,27.48
2023-01-21T00:17:57.071Z,24.55
2023-01-21T00:20:24.291Z,28.80
2023-01-21T00:22:53.963Z,25.65
2023-01-21T00:25:21.266Z,22.92
2023-01-21T00:27:48.453Z,25.63
2023-01-21T00:30:15.930Z,29.48
2023-01-21T00:32:43.248Z,28.92
2023-01-21T00:35:10.540Z,23.42
2023-01-21T00:37:37.973Z,25.27
2023-01-21T00:40:06.041Z,26.88
2023-01-21T00:42:33.209Z,25.27
2023-01-21T00:45:00.521Z,27.88
2023-01-21T00:47:28.673Z,28.45
2023-01-21T00:49:55.886Z,25.90
2023-01-21T00:52:23.089Z,26.50
2023-01-21T00:54:50.213Z,27.63
2023-01-21T00:57:17.433Z,25.45
2023-01-21T00:59:44.738Z,26.83
2023-01-21T01:02:11.900Z,29.60
2023-01-21T01:04:39.242Z,24.92
2023-01-21T01:07:06.497Z,30.95
2023-01-21T01:09:33.658Z,27.20
2023-01-21T01:12:00.860Z,23.45
2023-01-21T01:14:28.053Z,26.95
2023-01-21T01:16:55.230Z,28.42
2023-01-21T01:19:22.494Z,25.25
2023-01-21T01:21:49.708Z,26.33
2023-01-21T01:24:17.507Z,33.13
2023-01-21T01:26:44.856Z,31.35
2023-01-21T01:29:13.364Z,23.65
2023-01-21T01:31:40.948Z,29.42
2023-01-21T01:34:08.268Z,31.30
2023-01-21T01:36:35.644Z,35.85
2023-01-21T01:39:02.773Z,33.33
2023-01-21T01:41:30.355Z,29.40
2023-01-21T01:44:00.574Z,31.60
2023-01-21T01:46:32.668Z,34.80
2023-01-21T01:49:03.140Z,38.88
2023-01-21T01:51:33.490Z,37.97
2023-01-21T01:54:01.176Z,37.88
2023-01-21T01:56:29.426Z,33.75
2023-01-21T01:58:59.536Z,47.80
2023-01-21T02:01:26.738Z,40.33
2023-01-21T02:03:59.508Z,43.63
2023-01-21T02:06:27.563Z,56.53
2023-01-21T02:08:58.233Z,51.33
2023-01-21T02:11:25.762Z,47.50
2023-01-21T02:13:54.071Z,53.75
2023-01-21T02:16:39.599Z,53.42
2023-01-21T02:19:32.682Z,47.80
2023-01-21T02:21:59.792Z,43.45
2023-01-21T02:24:59.257Z,48.83
2023-01-21T02:27:35.774Z,51.10
2023-01-21T02:30:05.977Z,49.85
2023-01-21T02:32:36.256Z,44.70
2023-01-21T02:35:15.639Z,45.45
2023-01-21T02:37:52.630Z,41.72
2023-01-21T02:40:28.614Z,41.17
2023-01-21T02:42:59.968Z,44.92
2023-01-21T02:45:40.310Z,50.38
2023-01-21T02:48:10.688Z,53.45
2023-01-21T02:50:46.279Z,48.47
2023-01-21T02:53:33.015Z,50.95
2023-01-21T02:56:03.538Z,50.85
2023-01-21T02:58:33.463Z,47.10
2023-01-21T03:01:12.358Z,54.45
2023-01-21T03:03:58.332Z,49.70
2023-01-21T03:06:30.249Z,47.42
2023-01-21T03:09:00.552Z,45.45
2023-01-21T03:11:27.737Z,48.65
2023-01-21T03:14:17.610Z,68.97
2023-01-21T03:16:58.490Z,47.75
2023-01-21T03:19:32.496Z,47.17
2023-01-21T03:22:01.627Z,50.53
2023-01-21T03:24:30.500Z,48.22
2023-01-21T03:27:00.161Z,53.85
2023-01-21T03:29:28.334Z,53.60
2023-01-21T03:31:58.763Z,54.45
2023-01-21T03:34:28.466Z,53.03
2023-01-21T03:36:58.781Z,55.08
2023-01-21T03:39:32.231Z,53.92
2023-01-21T03:41:59.564Z,51.63
2023-01-21T03:44:27.272Z,55.10
2023-01-21T03:47:02.545Z,51.58
2023-01-21T03:49:33.401Z,53.13
2023-01-21T03:52:01.966Z,56.72
2023-01-21T03:54:29.178Z,58.72
2023-01-21T03:56:59.023Z,54.70
2023-01-21T03:59:26.254Z,50.90
2023-01-21T04:01:53.444Z,51.67
2023-01-21T04:04:20.649Z,52.60
2023-01-21T04:06:47.913Z,49.10
2023-01-21T04:09:15.119Z,48.35
2023-01-21T04:11:42.309Z,45.45
2023-01-21T04:14:09.589Z,50.85
2023-01-21T04:16:36.841Z,47.92
2023-01-21T04:19:04.097Z,46.38
2023-01-21T04:21:31.343Z,58.78
2023-01-21T04:23:58.514Z,54.92
2023-01-21T04:26:25.879Z,46.22
2023-01-21T04:28:53.035Z,50.58
2023-01-21T04:31:20.231Z,48.40
2023-01-21T04:33:50.450Z,50.42
2023-01-21T04:36:17.670Z,46.65
2023-01-21T04:38:44.874Z,43.00
2023-01-21T04:41:12.014Z,46.38
2023-01-21T04:43:39.647Z,50.88
2023-01-21T04:46:06.857Z,49.95
2023-01-21T04:48:34.122Z,45.55
2023-01-21T04:51:01.369Z,46.13
2023-01-21T04:53:28.752Z,49.25
2023-01-21T04:55:55.968Z,46.95
2023-01-21T04:58:23.149Z,42.17
2023-01-21T05:00:50.370Z,49.25
2023-01-21T05:03:17.504Z,44.15
2023-01-21T05:05:44.731Z,45.53
2023-01-21T05:08:11.969Z,44.97
2023-01-21T05:10:39.182Z,45.20
2023-01-21T05:13:06.415Z,43.63
2023-01-21T05:15:33.653Z,48.28
2023-01-21T05:18:01.165Z,54.55
2023-01-21T05:20:28.425Z,48.83
2023-01-21T05:22:55.611Z,48.78
2023-01-21T05:25:22.817Z,50.78
2023-01-21T05:27:53.780Z,51.95
2023-01-21T05:30:22.009Z,47.70
2023-01-21T05:32:52.931Z,45.20
2023-01-21T05:35:24.327Z,46.63
2023-01-21T05:37:52.133Z,48.30
2023-01-21T05:40:19.766Z,50.80
2023-01-21T05:42:47.545Z,50.13
2023-01-21T05:45:14.848Z,55.70
2023-01-21T05:47:42.216Z,59.17
2023-01-21T05:50:10.029Z,62.03
2023-01-21T05:52:37.454Z,64.57
2023-01-21T05:55:05.079Z,86.45
2023-01-21T05:57:32.634Z,70.28
2023-01-21T06:00:00.082Z,58.45
2023-01-21T06:02:27.924Z,101.10
2023-01-21T06:04:55.263Z,60.08
2023-01-21T06:07:22.472Z,63.88
2023-01-21T06:09:50.293Z,66.80
2023-01-21T06:12:17.504Z,65.88
2023-01-21T06:14:44.675Z,69.95
2023-01-21T06:17:11.908Z,62.65
2023-01-21T06:19:39.094Z,65.47
2023-01-21T06:22:06.247Z,64.93
2023-01-21T06:24:33.411Z,68.40
2023-01-21T06:27:00.618Z,70.47
2023-01-21T06:29:28.103Z,66.13
2023-01-21T06:31:55.397Z,71.75
2023-01-21T06:34:22.648Z,64.57
2023-01-21T06:36:49.772Z,64.18
2023-01-21T06:39:17.041Z,57.58
2023-01-21T06:41:44.185Z,60.13
2023-01-21T06:44:11.402Z,61.55
2023-01-21T06:46:43.352Z,56.05
2023-01-21T06:49:16.013Z,51.75
2023-01-21T06:51:43.367Z,54.92
2023-01-21T06:54:13.535Z,52.60
2023-01-21T06:56:43.621Z,54.42
2023-01-21T06:59:10.951Z,46.78
2023-01-21T07:01:38.178Z,49.63
2023-01-21T07:04:05.471Z,49.63
2023-01-21T07:06:32.674Z,48.60
2023-01-21T07:08:59.874Z,52.40
2023-01-21T07:11:26.990Z,53.08
2023-01-21T07:13:54.125Z,58.20
2023-01-21T07:16:21.336Z,52.08
2023-01-21T07:18:48.528Z,59.38
2023-01-21T07:21:16.122Z,57.58
2023-01-21T07:23:43.455Z,61.60
2023-01-21T07:26:10.579Z,63.08
2023-01-21T07:28:37.711Z,64.15
2023-01-21T07:31:05.106Z,70.10
2023-01-21T07:33:32.361Z,68.07
2023-01-21T07:35:59.472Z,64.20
2023-01-21T07:38:26.630Z,69.45
2023-01-21T07:40:53.819Z,64.22
2023-01-21T07:43:20.983Z,59.17
2023-01-21T07:45:48.297Z,54.88
2023-01-21T07:48:15.545Z,62.30
2023-01-21T07:50:42.686Z,62.05
2023-01-21T07:53:11.115Z,61.65
2023-01-21T07:55:38.259Z,50.97
2023-01-21T07:58:05.467Z,57.22
2023-01-21T08:00:32.630Z,59.13
2023-01-21T08:02:59.850Z,58.55
2023-01-21T08:05:27.358Z,56.80
2023-01-21T08:07:57.588Z,45.13
2023-01-21T08:10:24.796Z,54.25
2023-01-21T08:12:52.009Z,53.00
2023-01-21T08:15:19.569Z,42.20
2023-01-21T08:17:48.735Z,38.40
2023-01-21T08:20:16.013Z,43.42
2023-01-21T08:22:43.124Z,37.55
2023-01-21T08:25:10.795Z,41.75
2023-01-21T08:27:38.132Z,40.10
2023-01-21T08:30:05.551Z,35.25
2023-01-21T08:32:32.716Z,40.13
2023-01-21T08:34:59.966Z,29.27
2023-01-21T08:37:27.221Z,28.30
2023-01-21T08:39:56.192Z,37.38
2023-01-21T08:42:23.550Z,35.13
2023-01-21T08:44:51.416Z,36.15
2023-01-21T08:47:18.897Z,33.55
2023-01-21T08:49:46.582Z,30.45
2023-01-21T08:52:14.107Z,28.50
2023-01-21T08:54:41.496Z,38.58
2023-01-21T08:57:10.116Z,39.60
2023-01-21T08:59:44.420Z,27.60
2023-01-21T09:02:12.585Z,31.52
2023-01-21T09:04:40.041Z,25.52
2023-01-21T09:07:07.165Z,34.95
2023-01-21T09:09:34.990Z,92.47
2023-01-21T09:12:02.394Z,34.75
2023-01-21T09:14:30.983Z,31.55
2023-01-21T09:16:58.174Z,24.70
2023-01-21T09:19:25.607Z,49.58
2023-01-21T09:21:54.349Z,40.58
2023-01-21T09:24:21.516Z,30.00
2023-01-21T09:26:48.669Z,42.13
2023-01-21T09:29:15.824Z,34.83
2023-01-21T09:31:43.061Z,38.15
2023-01-21T09:34:10.939Z,29.00
2023-01-21T09:36:38.231Z,32.63
2023-01-21T09:39:05.872Z,28.23
2023-01-21T09:41:40.434Z,24.27
2023-01-21T09:44:13.557Z,23.80
2023-01-21T09:46:53.105Z,27.75
2023-01-21T09:49:23.673Z,62.20
2023-01-21T09:51:52.487Z,31.73
2023-01-21T09:54:23.003Z,21.55
2023-01-21T09:56:57.582Z,29.80
2023-01-21T09:59:39.138Z,21.67
2023-01-21T10:02:10.206Z,39.97
2023-01-21T10:04:45.799Z,50.35
2023-01-21T10:07:16.879Z,49.65
2023-01-21T10:09:50.245Z,65.57
2023-01-21T10:12:17.417Z,44.45
2023-01-21T10:14:51.567Z,30.50
2023-01-21T10:17:42.298Z,83.93
2023-01-21T10:20:12.735Z,93.50
2023-01-21T10:22:43.014Z,42.80
2023-01-21T10:25:19.513Z,39.00
2023-01-21T10:27:46.776Z,42.63
2023-01-21T10:30:21.829Z,28.05
2023-01-21T10:32:50.971Z,25.13
2023-01-21T10:35:19.107Z,25.98
2023-01-21T10:37:55.487Z,21.67
2023-01-21T10:40:42.628Z,23.08
2023-01-21T10:43:09.869Z,24.42
2023-01-21T10:45:44.578Z,28.67
2023-01-21T10:48:15.006Z,23.60
2023-01-21T10:51:00.612Z,27.30
2023-01-21T10:53:37.053Z,28.65
2023-01-21T10:56:12.905Z,27.10
2023-01-21T10:59:12.705Z,34.92
2023-01-21T11:01:41.909Z,26.63
2023-01-21T11:04:17.990Z,39.58
2023-01-21T11:06:46.505Z,30.42
2023-01-21T11:09:14.905Z,24.35
2023-01-21T11:11:43.066Z,30.17
2023-01-21T11:14:10.817Z,31.13
2023-01-21T11:16:38.488Z,151.45
2023-01-21T11:19:07.401Z,154.65
2023-01-21T11:21:34.971Z,137.90
2023-01-21T11:24:03.778Z,59.70
2023-01-21T11:26:30.941Z,41.33
2023-01-21T11:29:15.084Z,66.80
2023-01-21T11:31:42.981Z,103.68
2023-01-21T11:34:13.194Z,33.83
2023-01-21T11:36:54.267Z,45.75
2023-01-21T11:39:23.466Z,23.90
2023-01-21T11:41:58.415Z,54.58
2023-01-21T11:44:26.017Z,83.13
2023-01-21T11:46:53.380Z,53.83
2023-01-21T11:49:25.501Z,69.35
2023-01-21T11:52:06.364Z,34.35
2023-01-21T11:54:38.491Z,24.02
2023-01-21T11:57:06.211Z,25.58
2023-01-21T11:59:36.135Z,26.40
2023-01-21T12:02:08.993Z,27.25
2023-01-21T12:04:36.893Z,26.40
2023-01-21T12:07:05.169Z,30.58
2023-01-21T12:09:32.472Z,26.65
2023-01-21T12:12:11.883Z,25.17
2023-01-21T12:14:52.095Z,25.30
2023-01-21T12:17:22.377Z,27.77
2023-01-21T12:19:57.914Z,29.02
2023-01-21T12:22:36.121Z,28.60
2023-01-21T12:25:22.386Z,22.48
2023-01-21T12:27:55.634Z,28.02
2023-01-21T12:32:53.369Z,25.40
2023-01-21T12:35:23.544Z,24.00
2023-01-21T12:37:54.364Z,24.30
2023-01-21T12:40:40.070Z,24.90
2023-01-21T12:43:13.807Z,23.70
2023-01-21T12:45:45.260Z,21.65
2023-01-21T12:48:21.440Z,24.73
2023-01-21T12:50:52.409Z,23.95
2023-01-21T12:53:28.958Z,24.88
2023-01-21T12:56:13.796Z,25.52
2023-01-21T12:58:46.636Z,20.15
2023-01-21T13:01:19.462Z,22.60
2023-01-21T13:03:54.591Z,26.67
2023-01-21T13:06:33.576Z,26.13
2023-01-21T13:09:28.631Z,22.55
2023-01-21T13:11:58.954Z,26.35
2023-01-21T13:14:26.151Z,25.05
2023-01-21T13:17:04.663Z,23.88
2023-01-21T13:19:34.636Z,26.35
2023-01-21T13:22:06.710Z,20.42
2023-01-21T13:24:53.829Z,25.45
2023-01-21T13:27:30.165Z,21.20
2023-01-21T13:30:03.458Z,24.45
2023-01-21T13:35:19.677Z,25.13
2023-01-21T13:37:55.292Z,26.23
2023-01-21T13:40:22.450Z,20.75
2023-01-21T13:42:56.431Z,22.98
2023-01-21T13:45:23.833Z,22.60
2023-01-21T13:48:11.716Z,23.80
2023-01-21T13:50:49.592Z,24.27
2023-01-21T13:53:35.734Z,24.05
2023-01-21T13:56:18.719Z,24.50
2023-01-21T13:58:54.670Z,22.63
2023-01-21T14:01:36.330Z,26.27
2023-01-21T14:04:11.035Z,22.75
2023-01-21T14:06:45.948Z,22.80
2023-01-21T14:09:33.194Z,20.48
2023-01-21T14:12:18.065Z,20.10
2023-01-21T14:14:57.540Z,22.20
2023-01-21T14:17:33.167Z,19.63
2023-01-21T14:20:09.982Z,28.58
2023-01-21T14:22:46.488Z,21.52
2023-01-21T14:25:13.557Z,23.67
2023-01-21T14:27:48.627Z,21.98
2023-01-21T14:30:15.990Z,23.40
2023-01-21T14:32:49.948Z,24.98
2023-01-21T14:35:36.448Z,21.83
2023-01-21T14:38:22.616Z,21.50
2023-01-21T14:40:50.999Z,23.95
2023-01-21T14:43:33.740Z,23.25
2023-01-21T14:46:01.740Z,21.00
2023-01-21T14:48:28.985Z,23.65
2023-01-21T14:51:09.547Z,25.13
2023-01-21T14:53:50.174Z,37.20
2023-01-21T14:56:28.943Z,20.35
2023-01-21T14:59:00.717Z,23.05
2023-01-21T15:01:34.188Z,24.88
2023-01-21T15:04:05.031Z,20.48
2023-01-21T15:06:32.765Z,26.60
2023-01-21T15:09:01.175Z,22.23
2023-01-21T15:11:31.377Z,23.20
2023-01-21T15:14:11.097Z,22.60
2023-01-21T15:16:40.098Z,22.38
2023-01-21T15:19:11.234Z,20.90
2023-01-21T15:21:38.454Z,20.73
2023-01-21T15:24:20.221Z,28.20
2023-01-21T15:27:06.241Z,26.75
2023-01-21T15:29:35.482Z,23.75
2023-01-21T15:32:19.822Z,25.30
2023-01-21T15:34:48.142Z,20.42
2023-01-21T15:37:18.342Z,205.13
2023-01-21T15:39:45.512Z,154.98
2023-01-21T15:42:19.095Z,32.50
2023-01-21T15:44:46.196Z,118.93
2023-01-21T15:47:35.629Z,165.93
2023-01-21T15:50:21.563Z,215.18
2023-01-21T15:52:58.711Z,84.15
2023-01-21T15:55:30.644Z,56.50
2023-01-21T15:58:19.591Z,152.23
2023-01-21T16:00:56.593Z,21.10
2023-01-21T16:03:26.801Z,64.32
2023-01-21T16:06:14.276Z,26.27
2023-01-21T16:08:50.448Z,71.78
2023-01-21T16:11:23.957Z,42.30
2023-01-21T16:14:13.105Z,30.73
2023-01-21T16:16:53.301Z,54.15
2023-01-21T16:19:29.098Z,26.75
2023-01-21T16:21:58.444Z,21.95
2023-01-21T16:24:27.511Z,20.98
2023-01-21T16:26:54.801Z,24.48
2023-01-21T16:29:22.148Z,24.05
2023-01-21T16:31:59.196Z,26.38
2023-01-21T16:34:32.624Z,21.40
2023-01-21T16:39:26.821Z,23.17
2023-01-21T16:42:05.552Z,23.23
2023-01-21T16:44:33.837Z,19.65
2023-01-21T16:47:01.365Z,18.38
2023-01-21T16:49:28.910Z,25.77
2023-01-21T16:51:57.781Z,21.00
2023-01-21T16:54:26.402Z,19.02
2023-01-21T16:56:58.438Z,28.02
2023-01-21T16:59:26.919Z,28.10
2023-01-21T17:01:54.806Z,32.53
2023-01-21T17:04:22.103Z,27.15
2023-01-21T17:06:49.955Z,32.33
2023-01-21T17:09:24.240Z,27.73
2023-01-21T17:11:51.505Z,26.80
2023-01-21T17:14:26.866Z,24.20
2023-01-21T17:16:55.009Z,34.67
2023-01-21T17:19:26.104Z,25.48
2023-01-21T17:21:55.571Z,32.20
2023-01-21T17:24:22.795Z,30.20
2023-01-21T17:26:54.626Z,37.53
2023-01-21T17:29:26.545Z,31.33
2023-01-21T17:32:03.380Z,31.73
2023-01-21T17:34:31.867Z,33.83
2023-01-21T17:36:59.429Z,37.90
2023-01-21T17:39:45.469Z,43.15
2023-01-21T17:42:20.108Z,43.10
2023-01-21T17:44:48.486Z,39.58
2023-01-21T17:47:24.367Z,36.90
2023-01-21T17:49:59.931Z,33.20
2023-01-21T17:52:27.502Z,35.38
2023-01-21T17:55:13.542Z,43.95
2023-01-21T17:57:40.742Z,28.10
2023-01-21T18:00:26.692Z,27.40
2023-01-21T18:02:54.083Z,25.60
2023-01-21T18:05:21.584Z,24.33
2023-01-21T18:07:48.815Z,26.38
2023-01-21T18:10:18.440Z,26.67
2023-01-21T18:12:45.707Z,25.00
2023-01-21T18:15:14.621Z,31.10
2023-01-21T18:17:46.319Z,26.33
2023-01-21T18:20:17.929Z,23.33
2023-01-21T18:22:46.088Z,25.90
2023-01-21T18:25:14.290Z,24.55
2023-01-21T18:27:42.081Z,25.55
2023-01-21T18:30:16.590Z,24.23
2023-01-21T18:32:44.016Z,19.95
2023-01-21T18:35:12.676Z,21.63
2023-01-21T18:37:39.884Z,26.92
2023-01-21T18:40:07.504Z,20.98
2023-01-21T18:42:34.683Z,21.92
2023-01-21T18:45:01.863Z,20.88
2023-01-21T18:47:29.101Z,18.23
2023-01-21T18:49:57.849Z,17.20
2023-01-21T18:52:28.881Z,17.25
2023-01-21T18:54:56.112Z,14.65
2023-01-21T18:57:23.695Z,16.95
2023-01-21T18:59:50.879Z,18.75
2023-01-21T19:02:19.752Z,19.55
2023-01-21T19:04:47.655Z,20.48
2023-01-21T19:07:15.560Z,18.17
2023-01-21T19:09:46.114Z,25.83
2023-01-21T19:12:14.439Z,15.02
2023-01-21T19:14:41.664Z,12.95
2023-01-21T19:17:20.512Z,34.97
2023-01-21T19:19:47.774Z,15.02
2023-01-21T19:22:15.645Z,13.77
2023-01-21T19:24:43.112Z,13.20
2023-01-21T19:27:14.797Z,14.77
2023-01-21T19:29:42.049Z,12.18
2023-01-21T19:32:14.750Z,11.40
2023-01-21T19:34:42.734Z,12.05
2023-01-21T19:37:15.069Z,10.90
2023-01-21T19:39:42.250Z,9.77
2023-01-21T19:42:11.470Z,11.10
2023-01-21T19:44:41.598Z,10.80
2023-01-21T19:47:24.270Z,11.88
2023-01-21T19:49:51.619Z,9.47
2023-01-21T19:52:19.003Z,7.88
2023-01-21T19:54:46.409Z,9.68
2023-01-21T19:57:14.548Z,8.68
2023-01-21T19:59:42.503Z,6.65
2023-01-21T20:02:13.168Z,7.28
2023-01-21T20:04:40.658Z,6.20
2023-01-21T20:07:08.467Z,5.75
2023-01-21T20:09:35.709Z,7.43
2023-01-21T20:12:04.414Z,7.15
2023-01-21T20:14:33.691Z,5.97
2023-01-21T20:17:03.067Z,5.85
2023-01-21T20:19:30.450Z,5.30
2023-01-21T20:22:02.869Z,5.22
2023-01-21T20:24:34.125Z,5.25
2023-01-21T20:27:06.533Z,4.63
2023-01-21T20:29:35.999Z,4.32
2023-01-21T20:32:08.152Z,4.55
2023-01-21T20:34:39.230Z,4.78
2023-01-21T20:39:51.672Z,4.70
2023-01-21T20:42:19.405Z,4.90
2023-01-21T20:44:47.366Z,4.13
2023-01-21T20:47:32.620Z,4.00
2023-01-21T20:50:14.229Z,4.63
2023-01-21T20:52:41.482Z,3.80
2023-01-21T20:55:09.057Z,4.03
2023-01-21T20:57:36.456Z,4.07
2023-01-21T21:00:14.603Z,4.25
2023-01-21T21:02:42.010Z,4.03
2023-01-21T21:05:11.816Z,4.20
2023-01-21T21:07:39.403Z,4.25
2023-01-21T21:10:08.091Z,4.20
2023-01-21T21:12:37.543Z,4.35
2023-01-21T21:15:08.094Z,4.10
2023-01-21T21:17:38.238Z,3.55
2023-01-21T21:22:59.224Z,4.03
2023-01-21T21:25:29.443Z,4.68
2023-01-21T21:27:57.134Z,4.57
2023-01-21T21:30:36.994Z,4.05
2023-01-21T21:33:06.012Z,3.92
2023-01-21T21:35:37.275Z,4.18
2023-01-21T21:38:06.756Z,4.20
2023-01-21T21:40:38.145Z,4.40
2023-01-21T21:43:24.181Z,4.43
2023-01-21T21:46:10.514Z,3.72
2023-01-21T21:48:37.968Z,4.18
2023-01-21T21:51:11.313Z,3.70
2023-01-21T21:56:19.933Z,3.38
2023-01-21T21:58:47.975Z,3.33
2023-01-21T22:01:17.552Z,4.40
2023-01-21T22:03:47.828Z,8.43
2023-01-21T22:06:15.609Z,9.45
2023-01-21T22:08:44.047Z,5.10
2023-01-21T22:11:19.754Z,3.55
2023-01-21T22:13:58.934Z,2.88
2023-01-21T22:16:28.828Z,3.95
2023-01-21T22:18:57.727Z,3.53
2023-01-21T22:21:29.180Z,3.17
2023-01-21T22:23:58.361Z,3.20
2023-01-21T22:26:27.893Z,3.95
2023-01-21T22:28:55.860Z,4.20
2023-01-21T22:31:27.872Z,4.03
2023-01-21T22:33:56.485Z,4.47
2023-01-21T22:36:24.905Z,3.13
2023-01-21T22:38:56.391Z,4.45
2023-01-21T22:41:24.667Z,4.93
2023-01-21T22:43:54.293Z,6.90
2023-01-21T22:46:26.277Z,4.05
2023-01-21T22:49:00.839Z,3.90
2023-01-21T22:51:28.796Z,3.95
2023-01-21T22:53:56.426Z,6.75
2023-01-21T22:56:39.791Z,3.17
2023-01-21T22:59:12.915Z,3.10
2023-01-21T23:01:40.399Z,3.83
2023-01-21T23:04:07.755Z,2.63
2023-01-21T23:06:36.809Z,3.25
2023-01-21T23:09:08.149Z,2.78
2023-01-21T23:11:38.407Z,3.15
2023-01-21T23:14:05.757Z,3.22
2023-01-21T23:16:36.386Z,2.75
2023-01-21T23:19:03.756Z,2.88
2023-01-21T23:21:31.380Z,2.50
2023-01-21T23:23:59.389Z,3.00
2023-01-21T23:26:26.743Z,3.08
2023-01-21T23:28:58.016Z,3.00
2023-01-21T23:31:25.601Z,2.75
2023-01-21T23:33:53.704Z,4.53
2023-01-21T23:36:21.390Z,3.20
2023-01-21T23:38:48.927Z,3.30
2023-01-21T23:41:19.163Z,3.33
2023-01-21T23:43:46.520Z,3.40
2023-01-21T23:46:16.678Z,3.17
2023-01-21T23:48:44.279Z,3.25
2023-01-21T23:51:13.080Z,3.70
2023-01-21T23:53:40.533Z,3.42
2023-01-21T23:56:13.146Z,4.32
2023-01-21T23:58:40.602Z,4.30
